KSTK/STK METAR and TAF weather

Enter ICAO airport designator
Station Type Date Time Source
KSTK METAR 2021/08/05 05:35 UTC NOAA

KSTK 050535Z AUTO 21003KT 10SM CLR 16/14 A3015 RMK AO2


Station Type Date Time Source
KSTK Decoded METAR 2021/08/05 05:35 UTC NOAA

Station name not available
Aug 05, 2021 - 01:35 AM EDT / 2021.08.05 0535 UTC
Wind: from the SSW (210 degrees) at 3 MPH (3 KT):0
Visibility: 10 mile(s):0
Sky conditions: clear
Temperature: 60 F (16 C)
Dew Point: 57 F (14 C)
Relative Humidity: 87%
Pressure (altimeter): 30.15 in. Hg (1020 hPa)
ob: KSTK 050535Z AUTO 21003KT 10SM CLR 16/14 A3015 RMK AO2
cycle: 5

Station Type Date Time Source
KSTK TAF UTC NOAA

Error!

Example: see airport list